Decoded Metar for VOTR (TIRUCHCHIRAPPALLI in INDIA) (IATA:TRZ) | Meteo·Mobile Aviation Weather
aviador You're here:

VOTR Decoded Metar

TIRUCHCHIRAPPALLI in INDIA
Report Time2018-12-14 23:00:00
UTC Time2018-12-14 23:30:01
Flight Rules ifr IFR
Wind010° at 09 kt
W.Decomp.*RWY 09: 1.9 kt HW 8.8 kt LCW
W.Rank010° ranks 21
Current wind is above 010° avg. (5.7)
Visibility3500 m
Phenomena:Mist
Clouds:Few 018 Hf
Expected CloudBase > 800 ft AGL from Temp-Dew spread
CeilingNone
Temp23°C (ISA +9)
Dew Point21°C (89% RH)
QNH1011 hPa
Density Alt1,683 ft
Elevation289 ft
Report Wrong Elevation
Raw Report
VOTR 142300Z 01009KT 3500 BR FEW018 23/21 Q1011 NOSIG=

Extra information for VOTR:More info

Metar Taf Metar & Taf Last 4 Metars F.Rules Stats Wind Profile Meteogram Temp Stats Airport Information Weather charts Add Link Nearby VenuesMetar ALERT Operation Metar Decoded Social comments